Página principal
METAR-TAF:

METAR-TAF

Aeroportos :

Bordj Badji Mokhtar, Argélia

latitude: 21-22-30N, longitude: 000-55-26E, altura: 396 m

Observação actual do tempo

O boletim foi feito há 1 hora e 25 minutos, às 12:00 UTC
Vento 10 kt de su-sudoeste
Temperatura 40°C
Pressão 1008 hPa
Visibilidade 10 km ou mais
sem nuvens abaixo de 1500 metros e sem cumulonimbus

METAR: DATM 301200Z 20010KT CAVOK 40/// Q1008

Hora: 14:25 (13:25 UTC)

Previsão

O boletim foi feito há 2 horas e 25 minutos, às 11:00 UTC
Previsão válida de 30 às 12 UTC a 30 às 21 UTC
Vento 10 kt de oes-sudoeste
Visibilidade 10 km ou mais
sem nuvens abaixo de 1500 metros e sem cumulonimbus
Probabilidade 30% :
Temporariamente
de 30 às 12 UTC a 30 às 15 UTC
Vento 15 kt de sudoeste com rajadas de 25 kt
Visibilidade: 4000 m
Poucas nuvensa uma altura de 4000 ft, Cumulus congestus.
Areia baixa levantada pelo vento

TAF: DATM 301100Z 3012/3021 24010KT CAVOK PROB30 TEMPO 3012/3015 22015G25KT 4000 DRSA FEW040TCU

Observações e previsões do tempo de mais de 4000 aeroportos (mensagens METAR e TAF).

As estações disponíveis são os pontos amarelos e vermelhos sobre o mapa.

Mova o rato sobre o mapa para ver o nome da estação.

Depois clique no ponto para visualizar as observações e previsões meteorológicas.

Para alterar o mapa : clique nos botões verdes com uma cruz preta para aumentar o zoom; no botão verde com uma pitada de zoom; ou nas setas verdes para mapas adjacentes.


METAR-TAF: